sensor_id;sensor_type;location;lat;lon;timestamp;temperature;humidity
9919;DHT22;4998;51.024;13.828;2023-07-28T00:02:07;22.10;92.50
9919;DHT22;4998;51.024;13.828;2023-07-28T00:04:36;22.10;92.60
9919;DHT22;4998;51.024;13.828;2023-07-28T00:07:03;22.10;92.60
9919;DHT22;4998;51.024;13.828;2023-07-28T00:09:31;22.10;92.60
9919;DHT22;4998;51.024;13.828;2023-07-28T00:11:58;22.10;92.60
9919;DHT22;4998;51.024;13.828;2023-07-28T00:14:25;22.10;92.60
9919;DHT22;4998;51.024;13.828;2023-07-28T00:16:52;22.10;92.70
9919;DHT22;4998;51.024;13.828;2023-07-28T00:19:20;22.20;92.80
9919;DHT22;4998;51.024;13.828;2023-07-28T00:21:49;22.20;93.00
9919;DHT22;4998;51.024;13.828;2023-07-28T00:24:16;22.20;93.00
9919;DHT22;4998;51.024;13.828;2023-07-28T00:26:43;22.20;93.00
9919;DHT22;4998;51.024;13.828;2023-07-28T00:29:10;22.20;93.10
9919;DHT22;4998;51.024;13.828;2023-07-28T00:31:37;22.20;93.10
9919;DHT22;4998;51.024;13.828;2023-07-28T00:34:04;22.20;93.10
9919;DHT22;4998;51.024;13.828;2023-07-28T00:36:32;22.20;93.10
9919;DHT22;4998;51.024;13.828;2023-07-28T00:39:00;22.20;93.20
9919;DHT22;4998;51.024;13.828;2023-07-28T00:41:27;22.20;93.20
9919;DHT22;4998;51.024;13.828;2023-07-28T00:43:54;22.20;93.20
9919;DHT22;4998;51.024;13.828;2023-07-28T00:46:21;22.20;93.20
9919;DHT22;4998;51.024;13.828;2023-07-28T00:48:48;22.20;93.40
9919;DHT22;4998;51.024;13.828;2023-07-28T00:51:16;22.20;93.50
9919;DHT22;4998;51.024;13.828;2023-07-28T00:53:43;22.30;93.60
9919;DHT22;4998;51.024;13.828;2023-07-28T00:56:12;22.30;93.60
9919;DHT22;4998;51.024;13.828;2023-07-28T00:58:40;22.30;93.80
9919;DHT22;4998;51.024;13.828;2023-07-28T01:01:07;22.30;93.70
9919;DHT22;4998;51.024;13.828;2023-07-28T01:03:34;22.30;93.80
9919;DHT22;4998;51.024;13.828;2023-07-28T01:06:11;22.30;93.80
9919;DHT22;4998;51.024;13.828;2023-07-28T01:08:45;22.30;93.80
9919;DHT22;4998;51.024;13.828;2023-07-28T01:11:15;22.40;94.00
9919;DHT22;4998;51.024;13.828;2023-07-28T01:13:41;22.30;93.90
9919;DHT22;4998;51.024;13.828;2023-07-28T01:16:08;22.40;93.90
9919;DHT22;4998;51.024;13.828;2023-07-28T01:18:36;22.40;94.30
9919;DHT22;4998;51.024;13.828;2023-07-28T01:21:11;22.40;94.00
9919;DHT22;4998;51.024;13.828;2023-07-28T01:23:44;22.40;94.10
9919;DHT22;4998;51.024;13.828;2023-07-28T01:26:17;22.40;94.30
9919;DHT22;4998;51.024;13.828;2023-07-28T01:28:47;22.40;94.30
9919;DHT22;4998;51.024;13.828;2023-07-28T01:31:14;22.40;94.50
9919;DHT22;4998;51.024;13.828;2023-07-28T01:33:41;22.40;94.10
9919;DHT22;4998;51.024;13.828;2023-07-28T01:36:08;22.40;94.20
9919;DHT22;4998;51.024;13.828;2023-07-28T01:38:35;22.40;94.30
9919;DHT22;4998;51.024;13.828;2023-07-28T01:41:02;22.40;94.30
9919;DHT22;4998;51.024;13.828;2023-07-28T01:43:29;22.30;94.30
9919;DHT22;4998;51.024;13.828;2023-07-28T01:45:58;22.30;94.50
9919;DHT22;4998;51.024;13.828;2023-07-28T01:48:26;22.30;94.70
9919;DHT22;4998;51.024;13.828;2023-07-28T01:50:53;22.40;94.80
9919;DHT22;4998;51.024;13.828;2023-07-28T01:53:20;22.30;94.80
9919;DHT22;4998;51.024;13.828;2023-07-28T01:55:47;22.30;94.80
9919;DHT22;4998;51.024;13.828;2023-07-28T01:58:14;22.30;94.80
9919;DHT22;4998;51.024;13.828;2023-07-28T02:00:41;22.30;94.90
9919;DHT22;4998;51.024;13.828;2023-07-28T02:03:09;22.30;95.30
9919;DHT22;4998;51.024;13.828;2023-07-28T02:05:36;22.30;95.10
9919;DHT22;4998;51.024;13.828;2023-07-28T02:08:03;22.30;95.10
9919;DHT22;4998;51.024;13.828;2023-07-28T02:10:30;22.30;95.20
9919;DHT22;4998;51.024;13.828;2023-07-28T02:12:57;22.30;95.20
9919;DHT22;4998;51.024;13.828;2023-07-28T02:15:24;22.30;95.20
9919;DHT22;4998;51.024;13.828;2023-07-28T02:17:51;22.30;95.30
9919;DHT22;4998;51.024;13.828;2023-07-28T02:20:20;22.30;95.30
9919;DHT22;4998;51.024;13.828;2023-07-28T02:22:47;22.30;95.70
9919;DHT22;4998;51.024;13.828;2023-07-28T02:25:14;22.30;95.30
9919;DHT22;4998;51.024;13.828;2023-07-28T02:27:41;22.20;95.40
9919;DHT22;4998;51.024;13.828;2023-07-28T02:30:08;22.20;95.80
9919;DHT22;4998;51.024;13.828;2023-07-28T02:32:36;22.20;95.60
9919;DHT22;4998;51.024;13.828;2023-07-28T02:35:04;22.20;95.50
9919;DHT22;4998;51.024;13.828;2023-07-28T02:37:32;22.20;95.60
9919;DHT22;4998;51.024;13.828;2023-07-28T02:39:59;22.10;95.70
9919;DHT22;4998;51.024;13.828;2023-07-28T02:42:26;22.10;95.70
9919;DHT22;4998;51.024;13.828;2023-07-28T02:44:53;22.10;95.80
9919;DHT22;4998;51.024;13.828;2023-07-28T02:47:20;22.10;95.90
9919;DHT22;4998;51.024;13.828;2023-07-28T02:49:47;22.10;96.00
9919;DHT22;4998;51.024;13.828;2023-07-28T02:52:14;22.10;96.10
9919;DHT22;4998;51.024;13.828;2023-07-28T02:54:42;22.10;96.10
9919;DHT22;4998;51.024;13.828;2023-07-28T02:57:09;22.10;96.00
9919;DHT22;4998;51.024;13.828;2023-07-28T02:59:36;22.10;96.00
9919;DHT22;4998;51.024;13.828;2023-07-28T03:02:04;22.10;96.10
9919;DHT22;4998;51.024;13.828;2023-07-28T03:04:31;22.10;96.20
9919;DHT22;4998;51.024;13.828;2023-07-28T03:06:58;22.10;96.30
9919;DHT22;4998;51.024;13.828;2023-07-28T03:09:25;22.00;96.40
9919;DHT22;4998;51.024;13.828;2023-07-28T03:11:55;22.10;96.50
9919;DHT22;4998;51.024;13.828;2023-07-28T03:14:22;22.00;96.60
9919;DHT22;4998;51.024;13.828;2023-07-28T03:16:49;22.00;96.60
9919;DHT22;4998;51.024;13.828;2023-07-28T03:19:15;22.00;96.60
9919;DHT22;4998;51.024;13.828;2023-07-28T03:21:43;22.10;96.70
9919;DHT22;4998;51.024;13.828;2023-07-28T03:24:10;22.20;96.80
9919;DHT22;4998;51.024;13.828;2023-07-28T03:26:37;22.00;96.80
9919;DHT22;4998;51.024;13.828;2023-07-28T03:29:05;22.10;96.90
9919;DHT22;4998;51.024;13.828;2023-07-28T03:31:32;22.00;96.90
9919;DHT22;4998;51.024;13.828;2023-07-28T03:34:01;22.00;96.90
9919;DHT22;4998;51.024;13.828;2023-07-28T03:36:28;22.10;97.00
9919;DHT22;4998;51.024;13.828;2023-07-28T03:38:55;22.10;97.20
9919;DHT22;4998;51.024;13.828;2023-07-28T03:41:22;22.10;97.20
9919;DHT22;4998;51.024;13.828;2023-07-28T03:43:49;22.10;97.10
9919;DHT22;4998;51.024;13.828;2023-07-28T03:46:17;22.10;97.30
9919;DHT22;4998;51.024;13.828;2023-07-28T03:48:44;22.10;97.40
9919;DHT22;4998;51.024;13.828;2023-07-28T03:51:12;22.10;97.40
9919;DHT22;4998;51.024;13.828;2023-07-28T03:53:39;22.10;97.40
9919;DHT22;4998;51.024;13.828;2023-07-28T03:56:06;22.10;97.40
9919;DHT22;4998;51.024;13.828;2023-07-28T03:58:33;22.10;97.50
9919;DHT22;4998;51.024;13.828;2023-07-28T04:01:00;22.10;97.50
9919;DHT22;4998;51.024;13.828;2023-07-28T04:03:28;22.10;97.60
9919;DHT22;4998;51.024;13.828;2023-07-28T04:05:55;22.10;97.70
9919;DHT22;4998;51.024;13.828;2023-07-28T04:08:22;22.10;97.60
9919;DHT22;4998;51.024;13.828;2023-07-28T04:10:49;22.10;97.60
9919;DHT22;4998;51.024;13.828;2023-07-28T04:13:16;22.10;97.70
9919;DHT22;4998;51.024;13.828;2023-07-28T04:15:43;22.10;97.70
9919;DHT22;4998;51.024;13.828;2023-07-28T04:18:10;22.10;97.70
9919;DHT22;4998;51.024;13.828;2023-07-28T04:20:39;22.10;97.80
9919;DHT22;4998;51.024;13.828;2023-07-28T04:23:05;22.10;97.90
9919;DHT22;4998;51.024;13.828;2023-07-28T04:25:32;22.10;97.80
9919;DHT22;4998;51.024;13.828;2023-07-28T04:27:59;22.10;97.90
9919;DHT22;4998;51.024;13.828;2023-07-28T04:30:26;22.10;97.90
9919;DHT22;4998;51.024;13.828;2023-07-28T04:32:54;22.10;97.90
9919;DHT22;4998;51.024;13.828;2023-07-28T04:35:21;22.10;98.00
9919;DHT22;4998;51.024;13.828;2023-07-28T04:37:49;22.10;98.00
9919;DHT22;4998;51.024;13.828;2023-07-28T04:40:16;22.20;98.20
9919;DHT22;4998;51.024;13.828;2023-07-28T04:42:43;22.20;98.00
9919;DHT22;4998;51.024;13.828;2023-07-28T04:45:10;22.20;98.10
9919;DHT22;4998;51.024;13.828;2023-07-28T04:47:37;22.20;98.20
9919;DHT22;4998;51.024;13.828;2023-07-28T04:50:05;22.20;98.30
9919;DHT22;4998;51.024;13.828;2023-07-28T04:52:32;22.20;98.30
9919;DHT22;4998;51.024;13.828;2023-07-28T04:55:00;22.20;98.30
9919;DHT22;4998;51.024;13.828;2023-07-28T04:57:27;22.30;98.50
9919;DHT22;4998;51.024;13.828;2023-07-28T04:59:54;22.30;98.40
9919;DHT22;4998;51.024;13.828;2023-07-28T05:02:21;22.30;98.30
9919;DHT22;4998;51.024;13.828;2023-07-28T05:04:48;22.30;98.30
9919;DHT22;4998;51.024;13.828;2023-07-28T05:07:15;22.30;98.30
9919;DHT22;4998;51.024;13.828;2023-07-28T05:09:42;22.30;98.30
9919;DHT22;4998;51.024;13.828;2023-07-28T05:12:11;22.30;98.20
9919;DHT22;4998;51.024;13.828;2023-07-28T05:14:38;22.30;98.20
9919;DHT22;4998;51.024;13.828;2023-07-28T05:17:05;22.30;98.20
9919;DHT22;4998;51.024;13.828;2023-07-28T05:19:33;22.30;98.30
9919;DHT22;4998;51.024;13.828;2023-07-28T05:22:00;22.30;98.30
9919;DHT22;4998;51.024;13.828;2023-07-28T05:24:27;22.40;98.30
9919;DHT22;4998;51.024;13.828;2023-07-28T05:26:54;22.40;98.20
9919;DHT22;4998;51.024;13.828;2023-07-28T05:29:22;22.40;98.20
9919;DHT22;4998;51.024;13.828;2023-07-28T05:31:49;22.40;98.30
9919;DHT22;4998;51.024;13.828;2023-07-28T05:34:16;22.40;98.20
9919;DHT22;4998;51.024;13.828;2023-07-28T05:36:43;22.40;98.20
9919;DHT22;4998;51.024;13.828;2023-07-28T05:39:10;22.40;98.20
9919;DHT22;4998;51.024;13.828;2023-07-28T05:41:38;22.40;98.10
9919;DHT22;4998;51.024;13.828;2023-07-28T05:44:05;22.40;98.10
9919;DHT22;4998;51.024;13.828;2023-07-28T05:46:33;22.40;98.10
9919;DHT22;4998;51.024;13.828;2023-07-28T05:49:00;22.40;98.20
9919;DHT22;4998;51.024;13.828;2023-07-28T05:51:27;22.50;98.20
9919;DHT22;4998;51.024;13.828;2023-07-28T05:53:55;22.50;98.20
9919;DHT22;4998;51.024;13.828;2023-07-28T05:56:22;22.50;98.20
9919;DHT22;4998;51.024;13.828;2023-07-28T05:58:49;22.50;98.20
9919;DHT22;4998;51.024;13.828;2023-07-28T06:01:16;22.60;98.30
9919;DHT22;4998;51.024;13.828;2023-07-28T06:03:45;22.60;98.30
9919;DHT22;4998;51.024;13.828;2023-07-28T06:06:12;22.60;98.30
9919;DHT22;4998;51.024;13.828;2023-07-28T06:08:39;22.70;98.10
9919;DHT22;4998;51.024;13.828;2023-07-28T06:11:06;22.70;98.00
9919;DHT22;4998;51.024;13.828;2023-07-28T06:13:33;22.70;98.00
9919;DHT22;4998;51.024;13.828;2023-07-28T06:16:00;22.70;98.00
9919;DHT22;4998;51.024;13.828;2023-07-28T06:18:27;22.70;98.10
9919;DHT22;4998;51.024;13.828;2023-07-28T06:20:55;22.80;98.20
9919;DHT22;4998;51.024;13.828;2023-07-28T06:23:22;22.80;98.30
9919;DHT22;4998;51.024;13.828;2023-07-28T06:25:49;22.80;98.00
9919;DHT22;4998;51.024;13.828;2023-07-28T06:28:16;22.90;97.90
9919;DHT22;4998;51.024;13.828;2023-07-28T06:30:43;22.90;97.90
9919;DHT22;4998;51.024;13.828;2023-07-28T06:33:10;22.90;97.90
9919;DHT22;4998;51.024;13.828;2023-07-28T06:35:37;22.90;97.80
9919;DHT22;4998;51.024;13.828;2023-07-28T06:38:06;22.90;97.80
9919;DHT22;4998;51.024;13.828;2023-07-28T06:40:33;23.00;97.90
9919;DHT22;4998;51.024;13.828;2023-07-28T06:43:00;23.00;97.80
9919;DHT22;4998;51.024;13.828;2023-07-28T06:45:27;23.10;97.70
9919;DHT22;4998;51.024;13.828;2023-07-28T06:47:54;23.10;97.90
9919;DHT22;4998;51.024;13.828;2023-07-28T06:50:21;23.20;98.00
9919;DHT22;4998;51.024;13.828;2023-07-28T06:52:49;23.30;98.20
9919;DHT22;4998;51.024;13.828;2023-07-28T06:55:17;23.50;98.50
9919;DHT22;4998;51.024;13.828;2023-07-28T06:57:47;23.70;98.40
9919;DHT22;4998;51.024;13.828;2023-07-28T07:00:15;23.90;98.20
9919;DHT22;4998;51.024;13.828;2023-07-28T07:02:43;24.10;97.70
9919;DHT22;4998;51.024;13.828;2023-07-28T07:05:11;24.20;97.10
9919;DHT22;4998;51.024;13.828;2023-07-28T07:07:40;24.40;96.70
9919;DHT22;4998;51.024;13.828;2023-07-28T07:10:08;24.40;96.20
9919;DHT22;4998;51.024;13.828;2023-07-28T07:12:37;24.50;95.80
9919;DHT22;4998;51.024;13.828;2023-07-28T07:15:05;24.50;95.40
9919;DHT22;4998;51.024;13.828;2023-07-28T07:17:32;24.60;95.40
9919;DHT22;4998;51.024;13.828;2023-07-28T07:19:59;24.60;95.10
9919;DHT22;4998;51.024;13.828;2023-07-28T07:22:26;24.60;94.80
9919;DHT22;4998;51.024;13.828;2023-07-28T07:24:54;24.60;94.30
9919;DHT22;4998;51.024;13.828;2023-07-28T07:27:23;24.50;94.30
9919;DHT22;4998;51.024;13.828;2023-07-28T07:29:52;24.50;94.30
9919;DHT22;4998;51.024;13.828;2023-07-28T07:32:19;24.50;94.20
9919;DHT22;4998;51.024;13.828;2023-07-28T07:34:46;24.40;94.10
9919;DHT22;4998;51.024;13.828;2023-07-28T07:37:13;24.40;94.10
9919;DHT22;4998;51.024;13.828;2023-07-28T07:39:40;24.40;94.30
9919;DHT22;4998;51.024;13.828;2023-07-28T07:42:09;24.30;94.10
9919;DHT22;4998;51.024;13.828;2023-07-28T07:44:37;24.30;94.20
9919;DHT22;4998;51.024;13.828;2023-07-28T07:47:13;24.30;94.30
9919;DHT22;4998;51.024;13.828;2023-07-28T07:49:40;24.30;94.20
9919;DHT22;4998;51.024;13.828;2023-07-28T07:52:07;24.30;93.90
9919;DHT22;4998;51.024;13.828;2023-07-28T07:54:35;24.30;93.90
9919;DHT22;4998;51.024;13.828;2023-07-28T07:57:02;24.30;93.70
9919;DHT22;4998;51.024;13.828;2023-07-28T07:59:29;24.40;93.70
9919;DHT22;4998;51.024;13.828;2023-07-28T08:01:58;24.30;93.70
9919;DHT22;4998;51.024;13.828;2023-07-28T08:04:27;24.30;93.70
9919;DHT22;4998;51.024;13.828;2023-07-28T08:06:54;24.40;93.60
9919;DHT22;4998;51.024;13.828;2023-07-28T08:09:21;24.40;93.50
9919;DHT22;4998;51.024;13.828;2023-07-28T08:11:48;24.40;93.40
9919;DHT22;4998;51.024;13.828;2023-07-28T08:14:16;24.50;93.30
9919;DHT22;4998;51.024;13.828;2023-07-28T08:16:43;24.50;93.20
9919;DHT22;4998;51.024;13.828;2023-07-28T08:19:10;24.50;93.10
9919;DHT22;4998;51.024;13.828;2023-07-28T08:21:38;24.50;92.90
9919;DHT22;4998;51.024;13.828;2023-07-28T08:24:05;24.50;93.00
9919;DHT22;4998;51.024;13.828;2023-07-28T08:26:32;24.60;92.90
9919;DHT22;4998;51.024;13.828;2023-07-28T08:28:59;24.60;92.90
9919;DHT22;4998;51.024;13.828;2023-07-28T08:31:26;24.60;92.80
9919;DHT22;4998;51.024;13.828;2023-07-28T08:33:53;24.60;93.00
9919;DHT22;4998;51.024;13.828;2023-07-28T08:36:20;24.60;92.80
9919;DHT22;4998;51.024;13.828;2023-07-28T08:38:49;24.70;92.70
9919;DHT22;4998;51.024;13.828;2023-07-28T08:41:16;24.80;92.80
9919;DHT22;4998;51.024;13.828;2023-07-28T08:43:43;24.80;92.80
9919;DHT22;4998;51.024;13.828;2023-07-28T08:46:10;24.90;92.50
9919;DHT22;4998;51.024;13.828;2023-07-28T08:48:37;24.90;92.20
9919;DHT22;4998;51.024;13.828;2023-07-28T08:51:04;24.90;91.70
9919;DHT22;4998;51.024;13.828;2023-07-28T08:53:33;25.00;91.40
9919;DHT22;4998;51.024;13.828;2023-07-28T08:56:02;24.90;91.20
9919;DHT22;4998;51.024;13.828;2023-07-28T08:58:30;24.90;91.30
9919;DHT22;4998;51.024;13.828;2023-07-28T09:00:57;24.90;91.30
9919;DHT22;4998;51.024;13.828;2023-07-28T09:03:26;24.90;91.50
9919;DHT22;4998;51.024;13.828;2023-07-28T09:05:59;24.90;91.50
9919;DHT22;4998;51.024;13.828;2023-07-28T09:08:27;25.00;91.30
9919;DHT22;4998;51.024;13.828;2023-07-28T09:10:54;25.00;91.30
9919;DHT22;4998;51.024;13.828;2023-07-28T09:13:22;24.90;91.20
9919;DHT22;4998;51.024;13.828;2023-07-28T09:15:49;24.90;90.90
9919;DHT22;4998;51.024;13.828;2023-07-28T09:18:17;24.90;90.70
9919;DHT22;4998;51.024;13.828;2023-07-28T09:20:44;24.90;90.60
9919;DHT22;4998;51.024;13.828;2023-07-28T09:23:13;24.90;90.60
9919;DHT22;4998;51.024;13.828;2023-07-28T09:25:40;24.90;90.80
9919;DHT22;4998;51.024;13.828;2023-07-28T09:28:07;24.90;90.80
9919;DHT22;4998;51.024;13.828;2023-07-28T09:30:47;24.90;90.60
9919;DHT22;4998;51.024;13.828;2023-07-28T09:33:29;24.80;90.40
9919;DHT22;4998;51.024;13.828;2023-07-28T09:35:56;24.80;90.40
9919;DHT22;4998;51.024;13.828;2023-07-28T09:38:24;24.80;90.50
9919;DHT22;4998;51.024;13.828;2023-07-28T09:40:53;24.80;90.50
9919;DHT22;4998;51.024;13.828;2023-07-28T09:43:21;24.80;90.40
9919;DHT22;4998;51.024;13.828;2023-07-28T09:45:49;24.80;90.50
9919;DHT22;4998;51.024;13.828;2023-07-28T09:48:17;24.80;90.70
9919;DHT22;4998;51.024;13.828;2023-07-28T09:50:45;24.90;90.50
9919;DHT22;4998;51.024;13.828;2023-07-28T09:53:13;24.90;90.70
9919;DHT22;4998;51.024;13.828;2023-07-28T09:55:41;24.90;90.80
9919;DHT22;4998;51.024;13.828;2023-07-28T09:58:10;25.00;90.90
9919;DHT22;4998;51.024;13.828;2023-07-28T10:00:38;25.00;91.00
9919;DHT22;4998;51.024;13.828;2023-07-28T10:03:08;25.10;91.00
9919;DHT22;4998;51.024;13.828;2023-07-28T10:05:36;25.20;90.80
9919;DHT22;4998;51.024;13.828;2023-07-28T10:08:04;25.30;91.00
9919;DHT22;4998;51.024;13.828;2023-07-28T10:10:32;25.40;91.10
9919;DHT22;4998;51.024;13.828;2023-07-28T10:13:00;25.50;90.70
9919;DHT22;4998;51.024;13.828;2023-07-28T10:15:28;25.60;90.30
9919;DHT22;4998;51.024;13.828;2023-07-28T10:17:57;25.70;90.00
9919;DHT22;4998;51.024;13.828;2023-07-28T10:20:30;25.70;88.90
9919;DHT22;4998;51.024;13.828;2023-07-28T10:23:05;25.80;89.10
9919;DHT22;4998;51.024;13.828;2023-07-28T10:25:36;25.80;88.80
9919;DHT22;4998;51.024;13.828;2023-07-28T10:28:04;25.80;88.40
9919;DHT22;4998;51.024;13.828;2023-07-28T10:30:36;25.90;89.00
9919;DHT22;4998;51.024;13.828;2023-07-28T10:33:04;25.90;88.80
9919;DHT22;4998;51.024;13.828;2023-07-28T10:35:32;26.00;88.90
9919;DHT22;4998;51.024;13.828;2023-07-28T10:38:27;26.10;87.70
9919;DHT22;4998;51.024;13.828;2023-07-28T10:41:08;26.20;87.80
9919;DHT22;4998;51.024;13.828;2023-07-28T10:43:36;26.20;87.10
9919;DHT22;4998;51.024;13.828;2023-07-28T10:46:05;26.20;86.00
9919;DHT22;4998;51.024;13.828;2023-07-28T10:48:34;26.30;85.90
9919;DHT22;4998;51.024;13.828;2023-07-28T10:51:04;26.30;85.70
9919;DHT22;4998;51.024;13.828;2023-07-28T10:53:32;26.30;85.70
9919;DHT22;4998;51.024;13.828;2023-07-28T10:58:27;26.30;85.20
9919;DHT22;4998;51.024;13.828;2023-07-28T11:00:54;26.40;85.50
9919;DHT22;4998;51.024;13.828;2023-07-28T11:03:22;26.40;85.40
9919;DHT22;4998;51.024;13.828;2023-07-28T11:05:50;26.50;85.00
9919;DHT22;4998;51.024;13.828;2023-07-28T11:08:18;26.50;84.70
9919;DHT22;4998;51.024;13.828;2023-07-28T11:10:45;26.60;84.00
9919;DHT22;4998;51.024;13.828;2023-07-28T11:13:13;26.60;84.00
9919;DHT22;4998;51.024;13.828;2023-07-28T11:15:41;26.70;84.20
9919;DHT22;4998;51.024;13.828;2023-07-28T11:18:08;26.80;83.70
9919;DHT22;4998;51.024;13.828;2023-07-28T11:20:35;26.80;82.70
9919;DHT22;4998;51.024;13.828;2023-07-28T11:23:03;26.90;82.10
9919;DHT22;4998;51.024;13.828;2023-07-28T11:25:33;26.90;81.40
9919;DHT22;4998;51.024;13.828;2023-07-28T11:28:01;27.00;81.50
9919;DHT22;4998;51.024;13.828;2023-07-28T11:30:31;27.10;82.00
9919;DHT22;4998;51.024;13.828;2023-07-28T11:32:59;27.20;81.10
9919;DHT22;4998;51.024;13.828;2023-07-28T11:35:26;27.30;81.20
9919;DHT22;4998;51.024;13.828;2023-07-28T11:37:53;27.30;80.50
9919;DHT22;4998;51.024;13.828;2023-07-28T11:40:22;27.40;79.70
9919;DHT22;4998;51.024;13.828;2023-07-28T11:42:53;27.60;77.70
9919;DHT22;4998;51.024;13.828;2023-07-28T11:45:21;27.60;75.60
9919;DHT22;4998;51.024;13.828;2023-07-28T11:47:56;27.60;75.50
9919;DHT22;4998;51.024;13.828;2023-07-28T11:50:24;27.70;74.80
9919;DHT22;4998;51.024;13.828;2023-07-28T11:52:51;27.70;75.20
9919;DHT22;4998;51.024;13.828;2023-07-28T11:55:19;27.70;75.50
9919;DHT22;4998;51.024;13.828;2023-07-28T11:57:47;27.80;74.00
9919;DHT22;4998;51.024;13.828;2023-07-28T12:00:16;27.80;73.90
9919;DHT22;4998;51.024;13.828;2023-07-28T12:02:44;27.80;73.50
9919;DHT22;4998;51.024;13.828;2023-07-28T12:05:13;27.80;72.10
9919;DHT22;4998;51.024;13.828;2023-07-28T12:07:40;27.90;70.70
9919;DHT22;4998;51.024;13.828;2023-07-28T12:10:08;27.90;70.40
9919;DHT22;4998;51.024;13.828;2023-07-28T12:12:43;28.00;70.30
9919;DHT22;4998;51.024;13.828;2023-07-28T12:15:25;28.00;69.60
9919;DHT22;4998;51.024;13.828;2023-07-28T12:18:03;28.00;69.90
9919;DHT22;4998;51.024;13.828;2023-07-28T12:20:33;28.00;69.60
9919;DHT22;4998;51.024;13.828;2023-07-28T12:23:01;28.00;70.40
9919;DHT22;4998;51.024;13.828;2023-07-28T12:25:29;28.10;69.30
9919;DHT22;4998;51.024;13.828;2023-07-28T12:27:56;28.10;69.10
9919;DHT22;4998;51.024;13.828;2023-07-28T12:30:25;28.10;70.00
9919;DHT22;4998;51.024;13.828;2023-07-28T12:32:52;28.10;69.80
9919;DHT22;4998;51.024;13.828;2023-07-28T12:35:19;28.10;69.60
9919;DHT22;4998;51.024;13.828;2023-07-28T12:37:46;28.20;69.00
9919;DHT22;4998;51.024;13.828;2023-07-28T12:40:13;28.30;68.60
9919;DHT22;4998;51.024;13.828;2023-07-28T12:42:40;28.30;69.20
9919;DHT22;4998;51.024;13.828;2023-07-28T12:45:08;28.30;67.80
9919;DHT22;4998;51.024;13.828;2023-07-28T12:47:39;28.30;67.80
9919;DHT22;4998;51.024;13.828;2023-07-28T12:50:06;28.30;67.30
9919;DHT22;4998;51.024;13.828;2023-07-28T12:52:33;28.30;67.00
9919;DHT22;4998;51.024;13.828;2023-07-28T12:55:00;28.30;66.80
9919;DHT22;4998;51.024;13.828;2023-07-28T12:57:27;28.30;66.50
9919;DHT22;4998;51.024;13.828;2023-07-28T12:59:54;28.30;66.70
9919;DHT22;4998;51.024;13.828;2023-07-28T13:02:21;28.30;66.70
9919;DHT22;4998;51.024;13.828;2023-07-28T13:04:50;28.30;66.30
9919;DHT22;4998;51.024;13.828;2023-07-28T13:07:17;28.30;65.90
9919;DHT22;4998;51.024;13.828;2023-07-28T13:09:44;28.30;65.90
9919;DHT22;4998;51.024;13.828;2023-07-28T13:12:12;28.30;65.80
9919;DHT22;4998;51.024;13.828;2023-07-28T13:14:39;28.30;65.10
9919;DHT22;4998;51.024;13.828;2023-07-28T13:17:06;28.20;65.00
9919;DHT22;4998;51.024;13.828;2023-07-28T13:19:33;28.20;65.10
9919;DHT22;4998;51.024;13.828;2023-07-28T13:22:01;28.20;65.50
9919;DHT22;4998;51.024;13.828;2023-07-28T13:24:28;28.20;65.50
9919;DHT22;4998;51.024;13.828;2023-07-28T13:26:55;28.10;65.30
9919;DHT22;4998;51.024;13.828;2023-07-28T13:29:22;28.10;65.10
9919;DHT22;4998;51.024;13.828;2023-07-28T13:31:49;28.20;65.00
9919;DHT22;4998;51.024;13.828;2023-07-28T13:34:16;28.20;65.40
9919;DHT22;4998;51.024;13.828;2023-07-28T13:36:43;28.20;65.60
9919;DHT22;4998;51.024;13.828;2023-07-28T13:39:12;28.30;65.40
9919;DHT22;4998;51.024;13.828;2023-07-28T13:41:39;28.30;64.60
9919;DHT22;4998;51.024;13.828;2023-07-28T13:44:06;28.40;64.70
9919;DHT22;4998;51.024;13.828;2023-07-28T13:46:33;28.40;65.00
9919;DHT22;4998;51.024;13.828;2023-07-28T13:49:00;28.40;64.10
9919;DHT22;4998;51.024;13.828;2023-07-28T13:51:27;28.50;64.00
9919;DHT22;4998;51.024;13.828;2023-07-28T13:53:54;28.50;63.60
9919;DHT22;4998;51.024;13.828;2023-07-28T13:56:22;28.60;62.90
9919;DHT22;4998;51.024;13.828;2023-07-28T13:58:49;28.60;62.50
9919;DHT22;4998;51.024;13.828;2023-07-28T14:01:16;28.70;62.60
9919;DHT22;4998;51.024;13.828;2023-07-28T14:03:43;28.70;62.30
9919;DHT22;4998;51.024;13.828;2023-07-28T14:06:11;28.80;62.10
9919;DHT22;4998;51.024;13.828;2023-07-28T14:08:38;28.80;62.40
9919;DHT22;4998;51.024;13.828;2023-07-28T14:11:05;28.90;62.50
9919;DHT22;4998;51.024;13.828;2023-07-28T14:13:33;28.90;62.30
9919;DHT22;4998;51.024;13.828;2023-07-28T14:16:00;29.00;62.00
9919;DHT22;4998;51.024;13.828;2023-07-28T14:18:27;29.10;61.70
9919;DHT22;4998;51.024;13.828;2023-07-28T14:20:54;29.20;60.50
9919;DHT22;4998;51.024;13.828;2023-07-28T14:23:23;29.20;60.20
9919;DHT22;4998;51.024;13.828;2023-07-28T14:25:50;29.30;59.90
9919;DHT22;4998;51.024;13.828;2023-07-28T14:28:18;29.40;59.70
9919;DHT22;4998;51.024;13.828;2023-07-28T14:30:47;29.40;59.50
9919;DHT22;4998;51.024;13.828;2023-07-28T14:33:16;29.50;59.50
9919;DHT22;4998;51.024;13.828;2023-07-28T14:35:44;29.50;59.10
9919;DHT22;4998;51.024;13.828;2023-07-28T14:38:12;29.50;59.10
9919;DHT22;4998;51.024;13.828;2023-07-28T14:40:39;29.50;58.90
9919;DHT22;4998;51.024;13.828;2023-07-28T14:43:06;29.60;58.70
9919;DHT22;4998;51.024;13.828;2023-07-28T14:45:33;29.60;58.20
9919;DHT22;4998;51.024;13.828;2023-07-28T14:48:02;29.70;57.60
9919;DHT22;4998;51.024;13.828;2023-07-28T14:50:29;29.70;57.20
9919;DHT22;4998;51.024;13.828;2023-07-28T14:52:58;29.70;56.90
9919;DHT22;4998;51.024;13.828;2023-07-28T14:55:25;29.70;57.10
9919;DHT22;4998;51.024;13.828;2023-07-28T14:57:52;29.80;57.20
9919;DHT22;4998;51.024;13.828;2023-07-28T15:00:19;29.80;57.10
9919;DHT22;4998;51.024;13.828;2023-07-28T15:02:46;29.90;56.20
9919;DHT22;4998;51.024;13.828;2023-07-28T15:05:14;29.90;56.20
9919;DHT22;4998;51.024;13.828;2023-07-28T15:07:41;29.80;55.90
9919;DHT22;4998;51.024;13.828;2023-07-28T15:10:09;29.80;55.50
9919;DHT22;4998;51.024;13.828;2023-07-28T15:12:36;29.70;55.60
9919;DHT22;4998;51.024;13.828;2023-07-28T15:15:03;29.60;55.60
9919;DHT22;4998;51.024;13.828;2023-07-28T15:17:30;29.50;55.70
9919;DHT22;4998;51.024;13.828;2023-07-28T15:19:57;29.50;56.10
9919;DHT22;4998;51.024;13.828;2023-07-28T15:22:26;29.30;57.10
9919;DHT22;4998;51.024;13.828;2023-07-28T15:24:53;29.20;58.80
9919;DHT22;4998;51.024;13.828;2023-07-28T15:27:20;29.00;59.40
9919;DHT22;4998;51.024;13.828;2023-07-28T15:29:47;28.80;60.50
9919;DHT22;4998;51.024;13.828;2023-07-28T15:32:14;28.60;61.60
9919;DHT22;4998;51.024;13.828;2023-07-28T15:34:41;28.40;62.90
9919;DHT22;4998;51.024;13.828;2023-07-28T15:37:08;28.20;63.80
9919;DHT22;4998;51.024;13.828;2023-07-28T15:39:36;28.10;64.40
9919;DHT22;4998;51.024;13.828;2023-07-28T15:42:03;28.00;65.90
9919;DHT22;4998;51.024;13.828;2023-07-28T15:44:30;28.00;67.30
9919;DHT22;4998;51.024;13.828;2023-07-28T15:46:58;28.00;68.40
9919;DHT22;4998;51.024;13.828;2023-07-28T15:49:25;28.10;69.10
9919;DHT22;4998;51.024;13.828;2023-07-28T15:51:52;28.20;70.60